Time;durP1;ratioP1;P1;durP2;ratioP2;P2;SDS_P1;SDS_P2;PMS_P1;PMS_P2;Temp;Humidity;BMP_temperature;BMP_pressure;BME280_temperature;BME280_humidity;BME280_pressure;Samples;Min_cycle;Max_cycle;Signal;HPM_P1;HPM_P2
2023/01/13 00:01:26;;;;;;;;;;;;;;;25.52;43.06;94247.31;5069144;28;7044;-71
2023/01/13 00:03:53;;;;;;;;;;;;;;;25.51;42.69;94252.13;5049849;28;7097;-71
2023/01/13 00:06:29;;;;;;;;;;;;;;;25.54;43.00;94250.31;5053592;28;9055;-71
2023/01/13 00:08:55;;;;;;;;;;;;;;;25.52;43.15;94248.06;5064913;28;7240;-71
2023/01/13 00:11:24;;;;;;;;;;;;;;;25.55;42.49;94243.56;5054208;28;9041;-71
2023/01/13 00:13:56;;;;;;;;;;;;;;;25.52;43.21;94250.06;5058580;28;7028;-71
2023/01/13 00:16:24;;;;;;;;;;;;;;;25.52;42.43;94261.09;5061042;28;7173;-71
2023/01/13 00:18:53;;;;;;;;;;;;;;;25.53;42.50;94241.31;5060537;28;9284;-71
2023/01/13 00:21:22;;;;;;;;;;;;;;;25.55;42.42;94238.06;5057562;28;8450;-71
2023/01/13 00:23:50;;;;;;;;;;;;;;;25.55;43.26;94233.28;5051070;28;7124;-70
2023/01/13 00:26:25;;;;;;;;;;;;;;;25.58;42.28;94226.00;5048005;28;6867;-71
2023/01/13 00:29:00;;;;;;;;;;;;;;;25.57;42.99;94208.75;5040014;28;7190;-71
2023/01/13 00:31:28;;;;;;;;;;;;;;;25.58;43.06;94201.22;5055402;28;9237;-70
2023/01/13 00:34:00;;;;;;;;;;;;;;;25.55;42.98;94199.50;5053167;28;7155;-71
2023/01/13 00:36:31;;;;;;;;;;;;;;;25.54;43.32;94195.97;5037335;28;7026;-71
2023/01/13 00:38:57;;;;;;;;;;;;;;;25.52;42.83;94187.50;5041822;28;7058;-71
2023/01/13 00:41:25;;;;;;;;;;;;;;;25.52;43.41;94179.22;5049438;28;7475;-71
2023/01/13 00:43:52;;;;;;;;;;;;;;;25.52;42.52;94176.47;5048029;28;7002;-70
2023/01/13 00:46:20;;;;;;;;;;;;;;;25.48;42.79;94167.75;5061388;28;7056;-70
2023/01/13 00:48:48;;;;;;;;;;;;;;;25.49;42.63;94172.00;5049197;28;7035;-70
2023/01/13 00:51:20;;;;;;;;;;;;;;;25.48;42.50;94172.50;5041824;28;7310;-71
2023/01/13 00:53:49;;;;;;;;;;;;;;;25.46;43.30;94170.28;5050911;28;7283;-70
2023/01/13 00:56:24;;;;;;;;;;;;;;;25.49;42.64;94172.00;5063304;28;7680;-71
2023/01/13 00:59:02;;;;;;;;;;;;;;;25.51;43.22;94169.50;5053330;28;7342;-71
2023/01/13 01:01:34;;;;;;;;;;;;;;;25.51;43.45;94175.00;5038865;28;8678;-71
2023/01/13 01:04:33;;;;;;;;;;;;;;;25.49;42.98;94172.00;5046772;28;8110;-71
2023/01/13 01:07:07;;;;;;;;;;;;;;;25.48;43.05;94159.50;4999780;28;7185;-70
2023/01/13 01:09:33;;;;;;;;;;;;;;;25.48;42.45;94167.75;4975433;28;7735;-70
2023/01/13 01:12:00;;;;;;;;;;;;;;;25.48;42.88;94158.75;4988435;28;7018;-70
2023/01/13 01:14:38;;;;;;;;;;;;;;;25.47;43.23;94146.97;4992447;28;9306;-70
2023/01/13 01:17:07;;;;;;;;;;;;;;;25.47;43.35;94144.22;4990312;28;7100;-71
2023/01/13 01:19:36;;;;;;;;;;;;;;;25.49;43.05;94152.00;4973047;28;7031;-71
2023/01/13 01:22:04;;;;;;;;;;;;;;;25.49;42.53;94152.72;4989192;28;7224;-71
2023/01/13 01:24:33;;;;;;;;;;;;;;;25.48;43.56;94162.25;4983002;28;7065;-71
2023/01/13 01:27:13;;;;;;;;;;;;;;;25.46;43.28;94164.78;4962948;28;7133;-71
2023/01/13 01:29:49;;;;;;;;;;;;;;;25.45;43.07;94155.00;4993542;28;7046;-71
2023/01/13 01:32:16;;;;;;;;;;;;;;;25.46;43.55;94153.00;4990275;28;7273;-70
2023/01/13 01:34:51;;;;;;;;;;;;;;;25.44;42.50;94150.78;4972869;28;9002;-71
2023/01/13 01:37:19;;;;;;;;;;;;;;;25.44;42.85;94148.03;4996501;28;7433;-71
2023/01/13 01:39:45;;;;;;;;;;;;;;;25.43;43.12;94150.03;4992613;28;9775;-71
2023/01/13 01:45:16;;;;;;;;;;;;;;;25.44;43.45;94161.78;5058843;28;7591;-71
2023/01/13 01:47:46;;;;;;;;;;;;;;;25.43;42.90;94157.53;5071359;28;7042;-71
2023/01/13 01:50:29;;;;;;;;;;;;;;;25.40;43.09;94156.53;5044946;28;8968;-71
2023/01/13 01:53:08;;;;;;;;;;;;;;;25.40;42.78;94156.53;5044755;28;7363;-71
2023/01/13 01:55:37;;;;;;;;;;;;;;;25.40;42.89;94153.06;5056142;28;7161;-71
2023/01/13 01:58:44;;;;;;;;;;;;;;;25.41;42.52;94162.78;5035851;28;7253;-71
2023/01/13 02:01:14;;;;;;;;;;;;;;;25.42;42.87;94153.31;4987123;28;8376;-71
2023/01/13 02:04:02;;;;;;;;;;;;;;;25.44;43.03;94153.53;4972769;28;7027;-71
2023/01/13 02:06:46;;;;;;;;;;;;;;;25.43;42.89;94138.25;4974776;28;8280;-71
2023/01/13 02:09:14;;;;;;;;;;;;;;;25.41;42.64;94144.25;4983551;28;9403;-71
2023/01/13 02:14:36;;;;;;;;;;;;;;;25.40;43.17;94142.75;4988794;28;7093;-70
2023/01/13 02:17:04;;;;;;;;;;;;;;;25.42;43.32;94136.78;4973542;28;8966;-70
2023/01/13 02:20:10;;;;;;;;;;;;;;;25.38;42.57;94134.28;4971999;28;7204;-70
2023/01/13 02:26:36;;;;;;;;;;;;;;;25.43;42.52;94143.78;4993711;28;8989;-71
2023/01/13 02:32:03;;;;;;;;;;;;;;;25.40;43.45;94144.78;4989585;28;7403;-70
2023/01/13 02:34:51;;;;;;;;;;;;;;;25.37;43.32;94130.03;4974330;28;9105;-70
2023/01/13 02:37:33;;;;;;;;;;;;;;;25.38;43.00;94147.31;4991764;28;8187;-70
2023/01/13 02:40:39;;;;;;;;;;;;;;;25.38;42.76;94144.56;5044630;28;9515;-70
2023/01/13 02:46:13;;;;;;;;;;;;;;;25.39;42.76;94148.78;5062819;28;7591;-70
2023/01/13 02:48:44;;;;;;;;;;;;;;;25.38;43.22;94141.81;5031522;28;7247;-70
2023/01/13 02:51:26;;;;;;;;;;;;;;;25.37;43.62;94134.78;5053277;28;9085;-70
2023/01/13 02:54:08;;;;;;;;;;;;;;;25.38;42.86;94137.03;5061672;28;7687;-70
2023/01/13 02:56:41;;;;;;;;;;;;;;;25.40;42.73;94147.53;5049286;28;8300;-71
2023/01/13 02:59:29;;;;;;;;;;;;;;;25.38;42.66;94147.31;5060297;28;7185;-71
2023/01/13 03:02:17;;;;;;;;;;;;;;;25.37;42.71;94145.81;5042357;28;9015;-71
2023/01/13 03:05:04;;;;;;;;;;;;;;;25.37;43.03;94140.31;5038210;28;9031;-71
2023/01/13 03:08:05;;;;;;;;;;;;;;;25.36;43.02;94133.28;5051159;28;7128;-70
2023/01/13 03:11:04;;;;;;;;;;;;;;;25.35;43.23;94131.81;4955184;28;7827;-70
2023/01/13 03:13:38;;;;;;;;;;;;;;;25.34;43.01;94122.81;4961689;28;6978;-70
2023/01/13 03:16:49;;;;;;;;;;;;;;;25.35;43.61;94127.06;4970125;28;9004;-71
2023/01/13 03:19:33;;;;;;;;;;;;;;;25.33;42.96;94117.81;4956976;28;8434;-71
2023/01/13 03:22:22;;;;;;;;;;;;;;;25.34;43.43;94119.28;4953837;28;7254;-71
2023/01/13 03:25:17;;;;;;;;;;;;;;;25.35;42.96;94118.06;4951412;28;7201;-71
2023/01/13 03:28:05;;;;;;;;;;;;;;;25.37;43.41;94118.28;4945798;28;8951;-71
2023/01/13 03:30:58;;;;;;;;;;;;;;;25.39;42.77;94115.75;4962282;28;9037;-71
2023/01/13 03:34:04;;;;;;;;;;;;;;;25.40;43.44;94123.50;4952864;28;7475;-71
2023/01/13 03:36:34;;;;;;;;;;;;;;;25.40;42.90;94117.25;4966539;28;7282;-71
2023/01/13 03:39:13;;;;;;;;;;;;;;;25.41;43.17;94113.22;4943437;28;8825;-71
2023/01/13 03:41:56;;;;;;;;;;;;;;;25.38;42.83;94117.75;4964268;28;7029;-71
2023/01/13 03:44:33;;;;;;;;;;;;;;;25.37;43.36;94110.03;4959240;28;7986;-71
2023/01/13 03:47:12;;;;;;;;;;;;;;;25.36;43.11;94109.25;5042741;28;7570;-71
2023/01/13 03:49:51;;;;;;;;;;;;;;;25.36;43.09;94117.53;5048568;28;9019;-71
2023/01/13 03:53:01;;;;;;;;;;;;;;;25.38;43.04;94119.78;5042552;28;7171;-71
2023/01/13 03:55:46;;;;;;;;;;;;;;;25.38;42.82;94114.28;4970994;28;9262;-71
2023/01/13 03:58:36;;;;;;;;;;;;;;;25.39;42.57;94121.25;4979242;28;7347;-71
2023/01/13 04:01:25;;;;;;;;;;;;;;;25.37;42.50;94116.28;4967028;28;9050;-71
2023/01/13 04:04:29;;;;;;;;;;;;;;;25.36;43.48;94114.03;4971525;28;7035;-71
2023/01/13 04:07:02;;;;;;;;;;;;;;;25.35;43.16;94112.53;4985802;28;8631;-71
2023/01/13 04:10:07;;;;;;;;;;;;;;;25.36;42.76;94103.00;4972368;28;9141;-71
2023/01/13 04:13:01;;;;;;;;;;;;;;;25.36;43.07;94106.50;4983819;28;8994;-70
2023/01/13 04:15:40;;;;;;;;;;;;;;;25.35;42.56;94096.78;4967347;28;7557;-71
2023/01/13 04:18:24;;;;;;;;;;;;;;;25.35;42.77;94093.28;4970875;28;9477;-71
2023/01/13 04:21:02;;;;;;;;;;;;;;;25.34;43.03;94092.53;4988141;28;9394;-71
2023/01/13 04:23:54;;;;;;;;;;;;;;;25.34;42.63;94087.00;4978422;28;7877;-71
2023/01/13 04:26:34;;;;;;;;;;;;;;;25.36;42.93;94094.75;5009585;28;9559;-71
2023/01/13 04:29:12;;;;;;;;;;;;;;;25.37;42.99;94101.75;5053625;28;7896;-71
2023/01/13 04:31:39;;;;;;;;;;;;;;;25.39;42.46;94082.72;5044336;28;7409;-71
2023/01/13 04:34:25;;;;;;;;;;;;;;;25.39;43.29;94082.72;5064035;28;7287;-71
2023/01/13 04:36:53;;;;;;;;;;;;;;;25.38;43.03;94087.47;5040567;28;7548;-71
2023/01/13 04:39:19;;;;;;;;;;;;;;;25.40;42.75;94081.47;5035169;28;7308;-71
2023/01/13 04:41:57;;;;;;;;;;;;;;;25.40;42.74;94081.47;5049968;28;6911;-71
2023/01/13 04:44:23;;;;;;;;;;;;;;;25.40;42.85;94095.22;5046223;28;9184;-71
2023/01/13 04:46:49;;;;;;;;;;;;;;;25.38;42.62;94087.47;5065970;28;9407;-71
2023/01/13 04:49:15;;;;;;;;;;;;;;;25.38;43.40;94086.75;5052459;28;7426;-71
2023/01/13 04:51:41;;;;;;;;;;;;;;;25.39;43.45;94082.72;5048609;28;9159;-71
2023/01/13 04:54:09;;;;;;;;;;;;;;;25.35;42.40;94090.53;5036560;28;8895;-71
2023/01/13 04:56:35;;;;;;;;;;;;;;;25.36;42.96;94086.50;5035795;28;8688;-71
2023/01/13 04:59:01;;;;;;;;;;;;;;;25.38;42.87;94081.25;5053970;28;7965;-71
2023/01/13 05:01:27;;;;;;;;;;;;;;;25.37;43.00;94076.97;5049380;28;9065;-71
2023/01/13 05:03:55;;;;;;;;;;;;;;;25.36;42.71;94089.25;5051633;28;7500;-71
2023/01/13 05:06:21;;;;;;;;;;;;;;;25.39;42.85;94093.72;5037638;28;7044;-71
2023/01/13 05:08:50;;;;;;;;;;;;;;;25.38;42.82;94103.25;5062319;28;7403;-71
2023/01/13 05:16:59;;;;;;;;;;;;;;;25.35;42.84;94107.78;5051149;28;7076;-71
2023/01/13 05:19:27;;;;;;;;;;;;;;;25.34;43.22;94103.53;5053929;28;7406;-71
2023/01/13 05:27:27;;;;;;;;;;;;;;;25.35;43.02;94101.53;5054971;28;7055;-70
2023/01/13 05:29:56;;;;;;;;;;;;;;;25.34;43.25;94091.78;5035651;28;7100;-70
2023/01/13 05:32:22;;;;;;;;;;;;;;;25.35;42.58;94093.28;5047649;28;8679;-70
2023/01/13 05:34:51;;;;;;;;;;;;;;;25.36;42.43;94086.50;5051299;28;7036;-70
2023/01/13 05:37:17;;;;;;;;;;;;;;;25.36;43.07;94092.00;5041951;28;7052;-71
2023/01/13 05:45:17;;;;;;;;;;;;;;;25.35;42.83;94085.75;5056524;28;7236;-73
2023/01/13 05:47:42;;;;;;;;;;;;;;;25.34;42.76;94075.25;5036285;28;9173;-71
2023/01/13 05:50:09;;;;;;;;;;;;;;;25.37;42.70;94077.72;5035596;28;7399;-71
2023/01/13 05:52:35;;;;;;;;;;;;;;;25.35;42.29;94072.00;5037291;28;9381;-71
2023/01/13 05:55:04;;;;;;;;;;;;;;;25.37;42.77;94066.72;5037518;28;8628;-71
2023/01/13 05:57:30;;;;;;;;;;;;;;;25.42;43.28;94084.47;5043179;28;7202;-71
2023/01/13 05:59:56;;;;;;;;;;;;;;;25.46;42.53;94089.69;5045712;28;8380;-69
2023/01/13 06:02:21;;;;;;;;;;;;;;;25.48;43.40;94085.16;5037828;28;7256;-71
2023/01/13 06:04:47;;;;;;;;;;;;;;;25.51;42.49;94094.41;5043629;28;9237;-70
2023/01/13 06:07:14;;;;;;;;;;;;;;;25.52;43.28;94095.88;5034672;28;9048;-70
2023/01/13 06:09:40;;;;;;;;;;;;;;;25.51;42.71;94081.38;5038645;28;7254;-69
2023/01/13 06:12:18;;;;;;;;;;;;;;;25.53;42.41;94089.88;5038986;28;7405;-69
2023/01/13 06:14:51;;;;;;;;;;;;;;;25.54;42.40;94087.84;5049949;28;7088;-70
2023/01/13 06:17:28;;;;;;;;;;;;;;;25.59;42.84;94092.53;5064872;28;7039;-71
2023/01/13 06:19:54;;;;;;;;;;;;;;;25.59;43.00;94089.78;5044463;28;7631;-70
2023/01/13 06:22:27;;;;;;;;;;;;;;;25.59;42.22;94093.28;5041955;28;7321;-71
2023/01/13 06:24:57;;;;;;;;;;;;;;;25.56;41.88;94099.81;5046493;28;7122;-69
2023/01/13 06:27:30;;;;;;;;;;;;;;;25.56;41.95;94090.81;5036421;28;9060;-69
2023/01/13 06:30:22;;;;;;;;;;;;;;;25.59;41.98;94092.53;5063706;28;7024;-68
2023/01/13 06:32:59;;;;;;;;;;;;;;;25.59;42.92;94090.53;5059386;28;8974;-68
2023/01/13 06:35:30;;;;;;;;;;;;;;;25.59;42.39;94078.78;5046809;28;7030;-68
2023/01/13 06:38:04;;;;;;;;;;;;;;;25.62;42.64;94088.75;5038104;28;7787;-68
2023/01/13 06:40:45;;;;;;;;;;;;;;;25.60;43.07;94081.00;5043602;28;7761;-68
2023/01/13 06:43:20;;;;;;;;;;;;;;;25.62;42.77;94083.97;5042111;28;7218;-69
2023/01/13 06:45:51;;;;;;;;;;;;;;;25.63;42.54;94079.97;5038086;28;8646;-68
2023/01/13 06:48:20;;;;;;;;;;;;;;;25.59;42.48;94085.03;5044446;28;7642;-68
2023/01/13 06:50:46;;;;;;;;;;;;;;;25.60;42.47;94069.97;5057085;28;7042;-68
2023/01/13 06:53:16;;;;;;;;;;;;;;;25.61;42.30;94082.50;5041576;28;7448;-70
2023/01/13 06:55:52;;;;;;;;;;;;;;;25.61;42.14;94082.50;5043817;28;7028;-70
2023/01/13 06:58:45;;;;;;;;;;;;;;;25.65;42.52;94088.47;5041820;28;7246;-70
2023/01/13 07:01:11;;;;;;;;;;;;;;;25.63;42.10;94095.75;5052715;28;7335;-69
2023/01/13 07:03:53;;;;;;;;;;;;;;;25.64;42.20;94087.00;5067685;28;8227;-69
2023/01/13 07:09:51;;;;;;;;;;;;;;;25.65;41.93;94080.19;5002198;28;7366;-69
2023/01/13 07:12:18;;;;;;;;;;;;;;;25.64;42.18;94078.72;5003221;28;7304;-70
2023/01/13 07:17:30;;;;;;;;;;;;;;;25.69;42.49;94077.13;4995155;28;7486;-70
2023/01/13 07:20:25;;;;;;;;;;;;;;;25.69;42.64;94088.16;4991334;28;9023;-70
2023/01/13 07:23:04;;;;;;;;;;;;;;;25.71;42.41;94074.63;4971705;28;9082;-70
2023/01/13 07:25:40;;;;;;;;;;;;;;;25.71;42.55;94075.38;4988581;28;7226;-70
2023/01/13 07:28:07;;;;;;;;;;;;;;;25.73;42.30;94075.59;4980984;28;7034;-70
2023/01/13 07:30:42;;;;;;;;;;;;;;;25.73;42.66;94074.88;4970898;28;9465;-70
2023/01/13 07:33:27;;;;;;;;;;;;;;;25.74;43.02;94082.59;4970512;28;7262;-70
2023/01/13 07:36:01;;;;;;;;;;;;;;;25.73;42.64;94083.84;4980691;28;9194;-70
2023/01/13 07:38:34;;;;;;;;;;;;;;;25.73;42.33;94085.88;4981328;28;9108;-70
2023/01/13 07:43:48;;;;;;;;;;;;;;;25.73;43.11;94078.34;4981675;28;7518;-71
2023/01/13 07:46:16;;;;;;;;;;;;;;;25.75;42.03;94081.31;4986591;28;7404;-71
2023/01/13 07:48:42;;;;;;;;;;;;;;;25.73;42.25;94083.84;4995304;28;9296;-71
2023/01/13 07:51:12;;;;;;;;;;;;;;;25.73;42.52;94077.63;4975701;28;9474;-70
2023/01/13 07:53:45;;;;;;;;;;;;;;;25.75;42.75;94088.88;4993836;28;7037;-69
2023/01/13 07:56:15;;;;;;;;;;;;;;;25.71;41.99;94089.13;4968906;28;7177;-70
2023/01/13 07:58:49;;;;;;;;;;;;;;;25.72;42.95;94090.63;5007892;28;7168;-71
2023/01/13 08:01:19;;;;;;;;;;;;;;;25.72;42.22;94101.66;5058100;28;9108;-70
2023/01/13 08:03:48;;;;;;;;;;;;;;;25.68;42.87;94105.97;5058571;28;7638;-71
2023/01/13 08:06:17;;;;;;;;;;;;;;;25.68;42.86;94105.97;5047246;28;8926;-71
2023/01/13 08:08:46;;;;;;;;;;;;;;;25.69;42.39;94097.19;5040679;28;8982;-71
2023/01/13 08:11:23;;;;;;;;;;;;;;;25.67;43.08;94102.47;5035212;28;7275;-71
2023/01/13 08:14:33;;;;;;;;;;;;;;;25.67;43.45;94113.47;5044932;28;9356;-71
2023/01/13 08:17:12;;;;;;;;;;;;;;;25.69;43.23;94091.66;5041399;28;9010;-71
2023/01/13 08:19:38;;;;;;;;;;;;;;;25.69;42.87;94096.44;5039718;28;7010;-71
2023/01/13 08:22:43;;;;;;;;;;;;;;;25.67;43.44;94119.00;5053952;28;9057;-71
2023/01/13 08:25:16;;;;;;;;;;;;;;;25.69;42.80;94130.22;5059502;28;7075;-71
2023/01/13 08:27:48;;;;;;;;;;;;;;;25.67;42.66;94138.25;5039438;28;7287;-70
2023/01/13 08:30:32;;;;;;;;;;;;;;;25.66;42.52;94116.75;5048770;28;7277;-70
2023/01/13 08:32:58;;;;;;;;;;;;;;;25.64;42.75;94119.28;5061431;28;7462;-71
2023/01/13 08:35:45;;;;;;;;;;;;;;;25.67;43.45;94093.44;5048810;28;8783;-71
2023/01/13 08:38:15;;;;;;;;;;;;;;;25.66;43.26;94087.22;5044191;28;9159;-71
2023/01/13 08:40:41;;;;;;;;;;;;;;;25.68;43.17;94092.19;5062612;28;9110;-71
2023/01/13 08:43:06;;;;;;;;;;;;;;;25.66;43.16;94106.50;5057488;28;7341;-71
2023/01/13 08:45:33;;;;;;;;;;;;;;;25.68;42.92;94126.00;5045813;28;9166;-71
2023/01/13 08:47:59;;;;;;;;;;;;;;;25.60;42.91;94108.53;5045926;28;9388;-71
2023/01/13 08:50:25;;;;;;;;;;;;;;;25.61;43.33;94109.28;5056942;28;9398;-71
2023/01/13 08:52:51;;;;;;;;;;;;;;;25.63;42.65;94126.78;5056069;28;8985;-70
2023/01/13 08:55:19;;;;;;;;;;;;;;;25.63;43.08;94128.81;5041941;28;9366;-71
2023/01/13 08:57:45;;;;;;;;;;;;;;;25.63;42.60;94121.28;5049692;28;8042;-71
2023/01/13 09:00:21;;;;;;;;;;;;;;;25.67;43.48;94143.03;5044288;28;7259;-71
2023/01/13 09:02:54;;;;;;;;;;;;;;;25.66;43.44;94156.06;5040831;28;7031;-70
2023/01/13 09:05:41;;;;;;;;;;;;;;;25.68;43.18;94155.53;5061328;28;8302;-71
2023/01/13 09:08:20;;;;;;;;;;;;;;;25.67;43.54;94141.03;5041048;28;9044;-69
2023/01/13 09:13:10;;;;;;;;;;;;;;;25.69;43.26;94146.00;5043317;28;9434;-70
2023/01/13 09:13:48;;;;;;;;;;;;;;;25.68;43.59;94139.03;5061562;28;9125;-70
2023/01/13 09:16:25;;;;;;;;;;;;;;;25.66;43.66;94145.06;5060630;28;7217;-71
2023/01/13 09:19:05;;;;;;;;;;;;;;;25.67;43.55;94146.53;5046386;28;9165;-70
2023/01/13 09:21:31;;;;;;;;;;;;;;;25.69;42.49;94144.00;5056053;28;7311;-71
2023/01/13 09:23:58;;;;;;;;;;;;;;;25.70;43.12;94142.75;5054187;28;7806;-71
2023/01/13 09:26:26;;;;;;;;;;;;;;;25.69;43.42;94137.75;5041272;28;9092;-70
2023/01/13 09:28:54;;;;;;;;;;;;;;;25.73;42.95;94138.22;5064223;28;8017;-70
2023/01/13 09:31:27;;;;;;;;;;;;;;;25.72;43.49;94144.97;5047839;28;9421;-70
2023/01/13 09:36:39;;;;;;;;;;;;;;;25.76;42.97;94137.16;5055921;28;7261;-69
2023/01/13 09:39:05;;;;;;;;;;;;;;;25.76;42.98;94134.41;5033792;28;8986;-70
2023/01/13 09:44:56;;;;;;;;;;;;;;;25.79;42.86;94131.38;5062507;28;7072;-71
2023/01/13 09:47:25;;;;;;;;;;;;;;;25.78;43.67;94129.13;5035470;28;7269;-70
2023/01/13 09:50:12;;;;;;;;;;;;;;;25.77;43.40;94144.94;5047014;28;6863;-70
2023/01/13 09:52:40;;;;;;;;;;;;;;;25.75;44.04;94149.47;5061099;28;7315;-71
2023/01/13 09:55:18;;;;;;;;;;;;;;;25.75;43.14;94163.97;5047931;28;7082;-69
2023/01/13 09:58:15;;;;;;;;;;;;;;;25.74;42.91;94172.75;5042612;28;8996;-69
2023/01/13 10:00:52;;;;;;;;;;;;;;;25.76;43.45;94181.25;5008738;28;9183;-69
2023/01/13 10:03:31;;;;;;;;;;;;;;;25.75;42.85;94205.28;5021117;28;7035;-69
2023/01/13 10:06:10;;;;;;;;;;;;;;;25.76;43.57;94228.84;5018402;28;9049;-69
2023/01/13 10:08:42;;;;;;;;;;;;;;;25.72;43.62;94211.84;5018402;28;8296;-69
2023/01/13 10:14:19;;;;;;;;;;;;;;;25.74;43.04;94181.03;5022872;28;7304;-70
2023/01/13 10:17:34;;;;;;;;;;;;;;;25.75;43.97;94188.75;5007439;28;7080;-71
2023/01/13 10:20:23;;;;;;;;;;;;;;;25.75;43.66;94197.03;4986589;28;7052;-69
2023/01/13 10:23:18;;;;;;;;;;;;;;;25.78;43.19;94192.50;4985622;28;9075;-70
2023/01/13 10:25:59;;;;;;;;;;;;;;;25.79;43.20;94194.75;4970876;28;7036;-71
2023/01/13 10:28:26;;;;;;;;;;;;;;;25.78;42.39;94201.50;4969939;28;7088;-71
2023/01/13 10:30:58;;;;;;;;;;;;;;;25.75;42.89;94197.03;4987445;28;7655;-71
2023/01/13 10:33:31;;;;;;;;;;;;;;;25.76;42.91;94198.53;4967316;28;7367;-71
2023/01/13 10:36:12;;;;;;;;;;;;;;;25.79;44.01;94191.25;4980175;28;8703;-71
2023/01/13 10:38:43;;;;;;;;;;;;;;;25.79;43.18;94191.25;5023434;28;7065;-72
2023/01/13 10:41:29;;;;;;;;;;;;;;;25.77;43.58;94189.00;5008170;28;9283;-71
2023/01/13 10:44:14;;;;;;;;;;;;;;;25.74;43.88;94200.31;5006241;28;7739;-71
2023/01/13 10:46:57;;;;;;;;;;;;;;;25.71;43.90;94201.34;5010850;28;7529;-71
2023/01/13 10:49:31;;;;;;;;;;;;;;;25.71;43.60;94207.59;5013588;28;9077;-71
2023/01/13 10:52:03;;;;;;;;;;;;;;;25.71;43.81;94204.09;5007698;28;7038;-72
2023/01/13 10:54:54;;;;;;;;;;;;;;;25.74;43.25;94200.31;5007756;28;7144;-71
2023/01/13 10:57:35;;;;;;;;;;;;;;;25.74;43.58;94203.81;5062615;28;7289;-71
2023/01/13 11:00:32;;;;;;;;;;;;;;;25.69;43.67;94210.13;5041539;28;7312;-70
2023/01/13 11:03:35;;;;;;;;;;;;;;;25.70;44.46;94199.84;5038128;28;9007;-71
2023/01/13 11:06:18;;;;;;;;;;;;;;;25.67;43.22;94200.88;5050273;28;7056;-71
2023/01/13 11:08:54;;;;;;;;;;;;;;;25.65;44.13;94197.88;5047072;28;7872;-72
2023/01/13 11:11:40;;;;;;;;;;;;;;;25.67;43.48;94209.13;5043490;28;7111;-72
2023/01/13 11:14:40;;;;;;;;;;;;;;;25.63;44.25;94214.94;5040588;28;9410;-72
2023/01/13 11:17:29;;;;;;;;;;;;;;;25.63;43.64;94214.94;5036799;28;7091;-71
2023/01/13 11:20:10;;;;;;;;;;;;;;;25.60;44.29;94221.47;5040612;28;7266;-70
2023/01/13 11:22:47;;;;;;;;;;;;;;;25.58;44.77;94215.72;5035810;28;9390;-70
2023/01/13 11:25:23;;;;;;;;;;;;;;;25.59;44.53;94214.47;5048931;28;9034;-70
2023/01/13 11:28:17;;;;;;;;;;;;;;;25.58;44.63;94218.47;5031507;28;7196;-70
2023/01/13 11:30:50;;;;;;;;;;;;;;;25.57;45.00;94208.75;5032849;28;9024;-71
2023/01/13 11:33:31;;;;;;;;;;;;;;;25.60;45.13;94204.94;5033707;28;7281;-71
2023/01/13 11:36:12;;;;;;;;;;;;;;;25.62;44.60;94213.44;5054464;28;8983;-71
2023/01/13 11:39:15;;;;;;;;;;;;;;;25.64;44.18;94213.69;5062204;28;7264;-71
2023/01/13 11:42:23;;;;;;;;;;;;;;;25.62;44.31;94210.66;5059398;28;7352;-73
2023/01/13 11:45:35;;;;;;;;;;;;;;;25.65;44.19;94212.41;5042800;28;9409;-72
2023/01/13 11:48:01;;;;;;;;;;;;;;;25.66;44.02;94218.66;5055805;28;7304;-70
2023/01/13 11:50:46;;;;;;;;;;;;;;;25.68;44.52;94213.38;5046758;28;7459;-71
2023/01/13 11:53:18;;;;;;;;;;;;;;;25.67;44.19;94215.41;5035091;28;7304;-71
2023/01/13 11:56:12;;;;;;;;;;;;;;;25.64;44.55;94207.44;5041629;28;7018;-72
2023/01/13 11:59:04;;;;;;;;;;;;;;;25.60;44.18;94212.47;5033342;28;9546;-71
2023/01/13 12:01:36;;;;;;;;;;;;;;;25.61;44.09;94197.44;4976263;28;7215;-71
2023/01/13 12:04:30;;;;;;;;;;;;;;;25.62;44.38;94194.16;4978825;28;8310;-71
2023/01/13 12:07:33;;;;;;;;;;;;;;;25.68;44.49;94191.34;4987642;28;7023;-71
2023/01/13 12:10:41;;;;;;;;;;;;;;;25.68;43.91;94192.09;4992789;28;8992;-71
2023/01/13 12:13:29;;;;;;;;;;;;;;;25.70;44.13;94191.59;4977260;28;7215;-71
2023/01/13 12:16:14;;;;;;;;;;;;;;;25.71;43.81;94184.81;4990269;28;9371;-72
2023/01/13 12:18:59;;;;;;;;;;;;;;;25.72;44.24;94176.03;4974400;28;9452;-72
2023/01/13 12:21:37;;;;;;;;;;;;;;;25.70;43.77;94177.81;4981447;28;7052;-71
2023/01/13 12:24:19;;;;;;;;;;;;;;;25.69;43.51;94168.78;4972278;28;9043;-71
2023/01/13 12:26:56;;;;;;;;;;;;;;;25.70;43.52;94175.81;4985544;28;7283;-71
2023/01/13 12:29:39;;;;;;;;;;;;;;;25.74;43.48;94173.50;4969562;28;7270;-72
2023/01/13 12:32:20;;;;;;;;;;;;;;;25.71;43.47;94179.31;4972789;28;8966;-71
2023/01/13 12:34:46;;;;;;;;;;;;;;;25.72;44.15;94200.81;4967859;28;7124;-71
2023/01/13 12:37:20;;;;;;;;;;;;;;;25.73;43.54;94205.06;4990945;28;8701;-71
2023/01/13 12:39:54;;;;;;;;;;;;;;;25.72;44.16;94206.34;5037930;28;7118;-71
2023/01/13 12:45:27;;;;;;;;;;;;;;;25.75;43.31;94212.84;5067648;28;8729;-72
2023/01/13 12:47:54;;;;;;;;;;;;;;;25.76;44.18;94226.06;5042773;28;9077;-72
2023/01/13 12:50:20;;;;;;;;;;;;;;;25.75;43.49;94216.31;5045374;28;7050;-72
2023/01/13 12:52:48;;;;;;;;;;;;;;;25.77;43.70;94215.81;5063530;28;7573;-71
2023/01/13 12:55:21;;;;;;;;;;;;;;;25.75;44.09;94232.84;5048868;28;7135;-71
2023/01/13 12:58:25;;;;;;;;;;;;;;;25.79;43.16;94238.84;5063141;28;7350;-72
2023/01/13 13:01:12;;;;;;;;;;;;;;;25.80;43.30;94237.56;5043014;28;9175;-71
2023/01/13 13:04:15;;;;;;;;;;;;;;;25.80;43.39;94236.81;5054240;28;7168;-71
2023/01/13 13:07:11;;;;;;;;;;;;;;;25.81;43.35;94233.56;5038867;28;7817;-71
2023/01/13 13:10:28;;;;;;;;;;;;;;;25.82;43.91;94239.78;5043617;28;8871;-71
2023/01/13 13:13:47;;;;;;;;;;;;;;;25.82;42.89;94245.28;4993193;28;7542;-71
2023/01/13 13:16:28;;;;;;;;;;;;;;;25.81;44.01;94250.09;5004887;28;7673;-71
2023/01/13 13:19:20;;;;;;;;;;;;;;;25.80;44.03;94270.63;5004643;28;7045;-71
2023/01/13 13:22:10;;;;;;;;;;;;;;;25.82;43.41;94273.59;4979244;28;9003;-71
2023/01/13 13:24:38;;;;;;;;;;;;;;;25.79;43.63;94263.63;4983951;28;9098;-72
2023/01/13 13:27:43;;;;;;;;;;;;;;;25.81;43.02;94277.63;4989259;28;9371;-71
2023/01/13 13:30:43;;;;;;;;;;;;;;;25.80;43.99;94264.34;4995939;28;7120;-71
2023/01/13 13:33:36;;;;;;;;;;;;;;;25.75;43.79;94256.91;4984524;28;7684;-70
2023/01/13 13:36:37;;;;;;;;;;;;;;;25.76;43.96;94266.66;5005133;28;9775;-71
2023/01/13 13:48:18;;;;;;;;;;;;;;;25.64;43.15;94246.75;5052269;28;7294;-71
2023/01/13 13:51:00;;;;;;;;;;;;;;;25.66;43.96;94260.00;5042675;28;7031;-72
2023/01/13 13:53:33;;;;;;;;;;;;;;;25.63;43.49;94267.25;5052500;28;8729;-72
2023/01/13 13:56:14;;;;;;;;;;;;;;;25.60;43.63;94257.28;5052052;28;7180;-70
2023/01/13 13:58:49;;;;;;;;;;;;;;;25.59;43.33;94280.56;5041338;28;7234;-72
2023/01/13 14:01:37;;;;;;;;;;;;;;;25.63;43.82;94283.03;5042521;28;7332;-71
2023/01/13 14:04:32;;;;;;;;;;;;;;;25.63;44.14;94294.81;5049602;28;8721;-71
2023/01/13 14:07:20;;;;;;;;;;;;;;;25.61;44.04;94302.09;5016669;28;7908;-71
2023/01/13 14:09:57;;;;;;;;;;;;;;;25.59;43.44;94313.63;5005722;28;7216;-72
2023/01/13 14:12:29;;;;;;;;;;;;;;;25.56;43.22;94311.88;5018540;28;8529;-72
2023/01/13 14:19:02;;;;;;;;;;;;;;;25.51;44.14;94320.97;4965722;28;6867;-71
2023/01/13 14:21:53;;;;;;;;;;;;;;;25.53;44.17;94304.66;4953864;28;9170;-71
2023/01/13 14:24:21;;;;;;;;;;;;;;;25.51;43.35;94312.69;4940397;28;7409;-71
2023/01/13 14:26:52;;;;;;;;;;;;;;;25.51;43.94;94309.19;4944065;28;7244;-71
2023/01/13 14:29:23;;;;;;;;;;;;;;;25.49;43.88;94309.69;4956472;28;8997;-71
2023/01/13 14:31:53;;;;;;;;;;;;;;;25.49;43.55;94309.69;4956566;28;7293;-71
2023/01/13 14:34:23;;;;;;;;;;;;;;;25.51;43.38;94304.44;4944135;28;7024;-72
2023/01/13 14:36:52;;;;;;;;;;;;;;;25.52;43.46;94308.66;4949526;28;7129;-71
2023/01/13 14:39:35;;;;;;;;;;;;;;;25.58;43.04;94325.16;4972775;28;9689;-71
2023/01/13 14:42:30;;;;;;;;;;;;;;;25.60;43.59;94322.66;4995460;28;7749;-71
2023/01/13 14:45:32;;;;;;;;;;;;;;;25.63;42.82;94327.88;4987019;28;8816;-71
2023/01/13 14:48:00;;;;;;;;;;;;;;;25.64;42.73;94326.63;4949003;28;7458;-71
2023/01/13 14:50:32;;;;;;;;;;;;;;;25.63;43.64;94327.09;4962489;28;7254;-71
2023/01/13 14:53:00;;;;;;;;;;;;;;;25.60;43.60;94334.38;4948226;28;7794;-71
2023/01/13 14:55:36;;;;;;;;;;;;;;;25.61;42.98;94322.13;4983415;28;7213;-71
2023/01/13 14:58:20;;;;;;;;;;;;;;;25.64;42.80;94323.88;5003825;28;9422;-71
2023/01/13 15:00:50;;;;;;;;;;;;;;;25.67;42.83;94316.56;4995182;28;7263;-72